sensor_id;sensor_type;location;lat;lon;timestamp;pressure;altitude;pressure_sealevel;temperature;humidity
21096;BME280;10706;49.036;12.112;2023-04-21T00:00:46;97354.44;;;7.42;91.85
21096;BME280;10706;49.036;12.112;2023-04-21T00:03:12;97354.78;;;7.15;93.11
21096;BME280;10706;49.036;12.112;2023-04-21T00:05:38;97356.31;;;7.05;93.80
21096;BME280;10706;49.036;12.112;2023-04-21T00:08:07;97349.53;;;7.09;95.04
21096;BME280;10706;49.036;12.112;2023-04-21T00:10:33;97347.56;;;7.04;94.34
21096;BME280;10706;49.036;12.112;2023-04-21T00:12:59;97348.78;;;7.01;94.05
21096;BME280;10706;49.036;12.112;2023-04-21T00:15:25;97348.03;;;6.94;94.09
21096;BME280;10706;49.036;12.112;2023-04-21T00:17:51;97344.44;;;6.89;95.01
21096;BME280;10706;49.036;12.112;2023-04-21T00:20:17;97338.53;;;6.87;95.52
21096;BME280;10706;49.036;12.112;2023-04-21T00:22:42;97339.66;;;6.79;95.55
21096;BME280;10706;49.036;12.112;2023-04-21T00:25:08;97342.16;;;6.74;95.85
21096;BME280;10706;49.036;12.112;2023-04-21T00:27:34;97340.53;;;6.73;95.51
21096;BME280;10706;49.036;12.112;2023-04-21T00:30:00;97337.72;;;6.68;95.93
21096;BME280;10706;49.036;12.112;2023-04-21T00:32:26;97332.88;;;6.65;96.47
21096;BME280;10706;49.036;12.112;2023-04-21T00:34:52;97329.75;;;6.68;96.76
21096;BME280;10706;49.036;12.112;2023-04-21T00:37:17;97334.28;;;6.86;96.28
21096;BME280;10706;49.036;12.112;2023-04-21T00:39:43;97328.72;;;7.06;95.08
21096;BME280;10706;49.036;12.112;2023-04-21T00:42:09;97335.34;;;7.15;94.49
21096;BME280;10706;49.036;12.112;2023-04-21T00:44:35;97331.47;;;7.17;94.56
21096;BME280;10706;49.036;12.112;2023-04-21T00:47:01;97331.47;;;7.17;93.81
21096;BME280;10706;49.036;12.112;2023-04-21T00:49:27;97331.38;;;7.24;93.43
21096;BME280;10706;49.036;12.112;2023-04-21T00:51:53;97329.19;;;7.21;93.31
21096;BME280;10706;49.036;12.112;2023-04-21T00:54:19;97330.41;;;7.18;94.08
21096;BME280;10706;49.036;12.112;2023-04-21T00:56:48;97333.38;;;7.29;93.13
21096;BME280;10706;49.036;12.112;2023-04-21T00:59:14;97338.16;;;7.20;93.27
21096;BME280;10706;49.036;12.112;2023-04-21T01:01:39;97339.13;;;7.07;93.66
21096;BME280;10706;49.036;12.112;2023-04-21T01:04:06;97342.75;;;6.94;93.68
21096;BME280;10706;49.036;12.112;2023-04-21T01:06:33;97346.38;;;6.81;94.50
21096;BME280;10706;49.036;12.112;2023-04-21T01:08:59;97351.00;;;6.68;94.87
21096;BME280;10706;49.036;12.112;2023-04-21T01:11:25;97352.22;;;6.47;95.45
21096;BME280;10706;49.036;12.112;2023-04-21T01:13:54;97354.13;;;6.39;96.63
21096;BME280;10706;49.036;12.112;2023-04-21T01:16:21;97347.41;;;6.37;96.54
21096;BME280;10706;49.036;12.112;2023-04-21T01:18:47;97353.09;;;6.40;97.07
21096;BME280;10706;49.036;12.112;2023-04-21T01:21:14;97355.78;;;6.34;97.04
21096;BME280;10706;49.036;12.112;2023-04-21T01:23:40;97348.28;;;6.31;96.98
21096;BME280;10706;49.036;12.112;2023-04-21T01:26:06;97360.19;;;6.21;97.11
21096;BME280;10706;49.036;12.112;2023-04-21T01:28:32;97358.63;;;6.14;97.07
21096;BME280;10706;49.036;12.112;2023-04-21T01:30:58;97360.44;;;6.13;97.30
21096;BME280;10706;49.036;12.112;2023-04-21T01:33:23;97360.44;;;6.13;97.09
21096;BME280;10706;49.036;12.112;2023-04-21T01:35:49;97351.31;;;6.09;98.09
21096;BME280;10706;49.036;12.112;2023-04-21T01:38:15;97350.91;;;6.06;98.52
21096;BME280;10706;49.036;12.112;2023-04-21T01:40:46;97350.91;;;6.06;98.16
21096;BME280;10706;49.036;12.112;2023-04-21T01:43:13;97349.75;;;6.01;98.45
21096;BME280;10706;49.036;12.112;2023-04-21T01:45:39;97351.03;;;5.85;99.03
21096;BME280;10706;49.036;12.112;2023-04-21T01:48:05;97355.72;;;5.83;99.71
21096;BME280;10706;49.036;12.112;2023-04-21T01:50:30;97360.00;;;5.84;100.00
21096;BME280;10706;49.036;12.112;2023-04-21T01:52:56;97357.97;;;5.87;100.00
21096;BME280;10706;49.036;12.112;2023-04-21T01:55:22;97346.38;;;5.81;99.33
21096;BME280;10706;49.036;12.112;2023-04-21T01:57:48;97347.41;;;5.80;99.77
21096;BME280;10706;49.036;12.112;2023-04-21T02:00:14;97348.44;;;5.79;99.82
21096;BME280;10706;49.036;12.112;2023-04-21T02:02:40;97358.25;;;5.72;99.93
21096;BME280;10706;49.036;12.112;2023-04-21T02:05:06;97352.56;;;5.68;100.00
21096;BME280;10706;49.036;12.112;2023-04-21T02:07:32;97360.53;;;5.68;99.95
21096;BME280;10706;49.036;12.112;2023-04-21T02:09:57;97356.19;;;5.74;100.00
21096;BME280;10706;49.036;12.112;2023-04-21T02:12:23;97359.84;;;5.79;100.00
21096;BME280;10706;49.036;12.112;2023-04-21T02:14:49;97356.81;;;5.76;100.00
21096;BME280;10706;49.036;12.112;2023-04-21T02:17:15;97349.72;;;5.70;100.00
21096;BME280;10706;49.036;12.112;2023-04-21T02:19:42;97352.63;;;5.61;100.00
21096;BME280;10706;49.036;12.112;2023-04-21T02:22:07;97356.50;;;5.59;100.00
21096;BME280;10706;49.036;12.112;2023-04-21T02:24:35;97361.63;;;5.54;100.00
21096;BME280;10706;49.036;12.112;2023-04-21T02:27:01;97357.38;;;5.46;100.00
21096;BME280;10706;49.036;12.112;2023-04-21T02:29:27;97357.34;;;5.53;100.00
21096;BME280;10706;49.036;12.112;2023-04-21T02:31:53;97353.72;;;5.47;100.00
21096;BME280;10706;49.036;12.112;2023-04-21T02:34:18;97355.34;;;5.48;100.00
21096;BME280;10706;49.036;12.112;2023-04-21T02:36:45;97348.63;;;5.45;100.00
21096;BME280;10706;49.036;12.112;2023-04-21T02:39:10;97352.13;;;5.39;100.00
21096;BME280;10706;49.036;12.112;2023-04-21T02:41:37;97356.03;;;5.30;100.00
21096;BME280;10706;49.036;12.112;2023-04-21T02:44:03;97354.97;;;5.38;100.00
21096;BME280;10706;49.036;12.112;2023-04-21T02:46:29;97359.19;;;5.52;100.00
21096;BME280;10706;49.036;12.112;2023-04-21T02:48:55;97352.16;;;5.71;100.00
21096;BME280;10706;49.036;12.112;2023-04-21T02:51:21;97348.53;;;5.97;100.00
21096;BME280;10706;49.036;12.112;2023-04-21T02:53:47;97353.78;;;6.04;100.00
21096;BME280;10706;49.036;12.112;2023-04-21T02:56:13;97349.59;;;6.21;99.62
21096;BME280;10706;49.036;12.112;2023-04-21T02:58:38;97349.91;;;6.32;98.58
21096;BME280;10706;49.036;12.112;2023-04-21T03:01:04;97341.94;;;6.32;98.29
21096;BME280;10706;49.036;12.112;2023-04-21T03:03:31;97348.00;;;6.39;97.23
21096;BME280;10706;49.036;12.112;2023-04-21T03:05:59;97351.63;;;6.45;96.62
21096;BME280;10706;49.036;12.112;2023-04-21T03:08:25;97349.72;;;6.52;95.95
21096;BME280;10706;49.036;12.112;2023-04-21T03:10:51;97351.28;;;6.59;95.73
21096;BME280;10706;49.036;12.112;2023-04-21T03:13:17;97357.13;;;6.68;95.44
21096;BME280;10706;49.036;12.112;2023-04-21T03:15:43;97351.28;;;6.59;95.15
21096;BME280;10706;49.036;12.112;2023-04-21T03:18:09;97364.75;;;6.58;94.81
21096;BME280;10706;49.036;12.112;2023-04-21T03:20:35;97364.53;;;6.59;95.28
21096;BME280;10706;49.036;12.112;2023-04-21T03:23:01;97363.69;;;6.40;96.22
21096;BME280;10706;49.036;12.112;2023-04-21T03:25:27;97376.94;;;6.15;95.81
21096;BME280;10706;49.036;12.112;2023-04-21T03:27:53;97380.44;;;5.77;96.24
21096;BME280;10706;49.036;12.112;2023-04-21T03:30:20;97379.91;;;5.62;97.37
21096;BME280;10706;49.036;12.112;2023-04-21T03:32:45;97380.78;;;5.49;98.49
21096;BME280;10706;49.036;12.112;2023-04-21T03:35:11;97371.84;;;5.43;98.58
21096;BME280;10706;49.036;12.112;2023-04-21T03:37:37;97372.91;;;5.42;99.21
21096;BME280;10706;49.036;12.112;2023-04-21T03:40:04;97370.00;;;5.51;100.00
21096;BME280;10706;49.036;12.112;2023-04-21T03:42:36;97372.59;;;5.57;99.58
21096;BME280;10706;49.036;12.112;2023-04-21T03:45:04;97368.72;;;5.60;100.00
21096;BME280;10706;49.036;12.112;2023-04-21T03:47:30;97377.84;;;5.71;100.00
21096;BME280;10706;49.036;12.112;2023-04-21T03:49:56;97376.88;;;5.58;99.19
21096;BME280;10706;49.036;12.112;2023-04-21T03:52:22;97376.16;;;5.44;99.12
21096;BME280;10706;49.036;12.112;2023-04-21T03:54:48;97372.53;;;5.32;100.00
21096;BME280;10706;49.036;12.112;2023-04-21T03:57:14;97378.66;;;5.26;100.00
21096;BME280;10706;49.036;12.112;2023-04-21T03:59:40;97367.69;;;5.22;100.00
21096;BME280;10706;49.036;12.112;2023-04-21T04:02:06;97369.72;;;5.20;100.00
21096;BME280;10706;49.036;12.112;2023-04-21T04:04:31;97365.81;;;5.30;100.00
21096;BME280;10706;49.036;12.112;2023-04-21T04:06:57;97366.75;;;5.49;100.00
21096;BME280;10706;49.036;12.112;2023-04-21T04:09:23;97361.56;;;5.67;100.00
21096;BME280;10706;49.036;12.112;2023-04-21T04:11:49;97365.69;;;5.88;100.00
21096;BME280;10706;49.036;12.112;2023-04-21T04:14:15;97366.06;;;5.98;100.00
21096;BME280;10706;49.036;12.112;2023-04-21T04:16:40;97369.47;;;6.06;99.46
21096;BME280;10706;49.036;12.112;2023-04-21T04:19:07;97371.81;;;5.95;98.74
21096;BME280;10706;49.036;12.112;2023-04-21T04:21:33;97364.50;;;5.84;98.75
21096;BME280;10706;49.036;12.112;2023-04-21T04:23:59;97367.75;;;5.86;99.05
21096;BME280;10706;49.036;12.112;2023-04-21T04:26:26;97369.44;;;6.12;98.95
21096;BME280;10706;49.036;12.112;2023-04-21T04:28:53;97367.09;;;6.22;98.92
21096;BME280;10706;49.036;12.112;2023-04-21T04:31:21;97374.88;;;6.17;97.37
21096;BME280;10706;49.036;12.112;2023-04-21T04:33:51;97378.38;;;5.79;97.37
21096;BME280;10706;49.036;12.112;2023-04-21T04:36:16;97380.13;;;5.60;97.81
21096;BME280;10706;49.036;12.112;2023-04-21T04:38:48;97377.09;;;5.57;98.94
21096;BME280;10706;49.036;12.112;2023-04-21T04:41:14;97381.38;;;5.58;98.88
21096;BME280;10706;49.036;12.112;2023-04-21T04:43:41;97384.16;;;5.70;99.83
21096;BME280;10706;49.036;12.112;2023-04-21T04:46:07;97388.00;;;5.74;98.98
21096;BME280;10706;49.036;12.112;2023-04-21T04:48:38;97387.78;;;5.75;99.49
21096;BME280;10706;49.036;12.112;2023-04-21T04:51:04;97393.09;;;5.75;99.31
21096;BME280;10706;49.036;12.112;2023-04-21T04:53:30;97390.44;;;5.75;99.32
21096;BME280;10706;49.036;12.112;2023-04-21T04:55:57;97387.78;;;5.75;99.35
21096;BME280;10706;49.036;12.112;2023-04-21T04:58:23;97388.97;;;5.79;99.37
21096;BME280;10706;49.036;12.112;2023-04-21T05:00:49;97389.34;;;5.90;99.67
21096;BME280;10706;49.036;12.112;2023-04-21T05:03:15;97385.34;;;6.12;98.66
21096;BME280;10706;49.036;12.112;2023-04-21T05:05:41;97388.47;;;6.28;97.73
21096;BME280;10706;49.036;12.112;2023-04-21T05:08:07;97387.41;;;6.35;96.83
21096;BME280;10706;49.036;12.112;2023-04-21T05:10:33;97375.28;;;6.46;96.67
21096;BME280;10706;49.036;12.112;2023-04-21T05:12:59;97377.34;;;6.44;95.95
21096;BME280;10706;49.036;12.112;2023-04-21T05:15:28;97377.81;;;6.59;95.94
21096;BME280;10706;49.036;12.112;2023-04-21T05:17:53;97380.28;;;6.54;95.44
21096;BME280;10706;49.036;12.112;2023-04-21T05:20:19;97382.44;;;6.64;95.83
21096;BME280;10706;49.036;12.112;2023-04-21T05:22:45;97383.38;;;6.76;95.66
21096;BME280;10706;49.036;12.112;2023-04-21T05:25:11;97384.53;;;6.80;94.14
21096;BME280;10706;49.036;12.112;2023-04-21T05:27:40;97396.34;;;6.85;93.76
21096;BME280;10706;49.036;12.112;2023-04-21T05:30:07;97389.19;;;6.85;94.78
21096;BME280;10706;49.036;12.112;2023-04-21T05:32:33;97385.38;;;7.18;92.86
21096;BME280;10706;49.036;12.112;2023-04-21T05:34:59;97384.41;;;7.31;92.15
21096;BME280;10706;49.036;12.112;2023-04-21T05:37:25;97386.22;;;7.49;91.48
21096;BME280;10706;49.036;12.112;2023-04-21T05:39:51;97384.88;;;7.58;90.25
21096;BME280;10706;49.036;12.112;2023-04-21T05:42:17;97384.09;;;7.69;90.17
21096;BME280;10706;49.036;12.112;2023-04-21T05:44:43;97393.59;;;7.77;90.22
21096;BME280;10706;49.036;12.112;2023-04-21T05:47:09;97387.50;;;7.76;90.68
21096;BME280;10706;49.036;12.112;2023-04-21T05:49:35;97390.28;;;7.82;89.65
21096;BME280;10706;49.036;12.112;2023-04-21T05:52:00;97393.66;;;7.89;89.91
21096;BME280;10706;49.036;12.112;2023-04-21T05:54:26;97385.94;;;7.99;90.04
21096;BME280;10706;49.036;12.112;2023-04-21T05:56:52;97389.31;;;8.06;88.90
21096;BME280;10706;49.036;12.112;2023-04-21T05:59:17;97387.03;;;8.10;88.31
21096;BME280;10706;49.036;12.112;2023-04-21T06:01:43;97385.44;;;8.32;88.34
21096;BME280;10706;49.036;12.112;2023-04-21T06:04:09;97387.66;;;8.35;88.43
21096;BME280;10706;49.036;12.112;2023-04-21T06:06:35;97390.34;;;8.59;87.49
21096;BME280;10706;49.036;12.112;2023-04-21T06:09:01;97393.03;;;8.71;86.80
21096;BME280;10706;49.036;12.112;2023-04-21T06:11:27;97391.16;;;8.95;85.48
21096;BME280;10706;49.036;12.112;2023-04-21T06:13:52;97398.34;;;8.94;85.87
21096;BME280;10706;49.036;12.112;2023-04-21T06:16:22;97384.78;;;8.96;85.05
21096;BME280;10706;49.036;12.112;2023-04-21T06:18:48;97393.94;;;8.88;85.94
21096;BME280;10706;49.036;12.112;2023-04-21T06:21:14;97393.59;;;8.85;86.36
21096;BME280;10706;49.036;12.112;2023-04-21T06:23:40;97394.06;;;8.70;86.61
21096;BME280;10706;49.036;12.112;2023-04-21T06:26:07;97387.69;;;8.83;86.11
21096;BME280;10706;49.036;12.112;2023-04-21T06:28:35;97392.56;;;8.74;86.32
21096;BME280;10706;49.036;12.112;2023-04-21T06:31:02;97391.75;;;8.73;86.64
21096;BME280;10706;49.036;12.112;2023-04-21T06:33:29;97394.06;;;8.70;86.86
21096;BME280;10706;49.036;12.112;2023-04-21T06:35:55;97387.34;;;8.91;86.98
21096;BME280;10706;49.036;12.112;2023-04-21T06:38:21;97388.94;;;9.04;85.27
21096;BME280;10706;49.036;12.112;2023-04-21T06:40:46;97390.56;;;8.93;86.89
21096;BME280;10706;49.036;12.112;2023-04-21T06:43:12;97388.97;;;8.92;85.23
21096;BME280;10706;49.036;12.112;2023-04-21T06:45:38;97386.88;;;8.94;84.92
21096;BME280;10706;49.036;12.112;2023-04-21T06:48:04;97391.84;;;8.90;86.07
21096;BME280;10706;49.036;12.112;2023-04-21T06:50:30;97393.59;;;8.85;86.23
21096;BME280;10706;49.036;12.112;2023-04-21T06:52:56;97386.84;;;9.06;85.70
21096;BME280;10706;49.036;12.112;2023-04-21T06:55:22;97391.09;;;9.42;85.36
21096;BME280;10706;49.036;12.112;2023-04-21T06:57:47;97387.47;;;9.77;83.00
21096;BME280;10706;49.036;12.112;2023-04-21T07:00:14;97391.81;;;9.95;82.67
21096;BME280;10706;49.036;12.112;2023-04-21T07:02:39;97387.28;;;10.12;81.65
21096;BME280;10706;49.036;12.112;2023-04-21T07:05:06;97390.56;;;10.31;80.93
21096;BME280;10706;49.036;12.112;2023-04-21T07:07:32;97390.75;;;10.59;78.96
21096;BME280;10706;49.036;12.112;2023-04-21T07:09:58;97385.22;;;10.82;79.07
21096;BME280;10706;49.036;12.112;2023-04-21T07:12:24;97392.78;;;11.07;77.48
21096;BME280;10706;49.036;12.112;2023-04-21T07:14:50;97390.41;;;11.11;75.61
21096;BME280;10706;49.036;12.112;2023-04-21T07:17:16;97389.31;;;11.29;75.57
21096;BME280;10706;49.036;12.112;2023-04-21T07:19:41;97392.38;;;11.38;74.31
21096;BME280;10706;49.036;12.112;2023-04-21T07:22:07;97392.72;;;11.46;73.66
21096;BME280;10706;49.036;12.112;2023-04-21T07:24:33;97389.09;;;11.58;73.90
21096;BME280;10706;49.036;12.112;2023-04-21T07:27:00;97383.81;;;11.63;73.46
21096;BME280;10706;49.036;12.112;2023-04-21T07:29:27;97385.31;;;11.76;71.73
21096;BME280;10706;49.036;12.112;2023-04-21T07:31:53;97383.06;;;11.90;73.06
21096;BME280;10706;49.036;12.112;2023-04-21T07:34:19;97383.91;;;11.90;72.60
21096;BME280;10706;49.036;12.112;2023-04-21T07:36:45;97379.44;;;12.01;72.26
21096;BME280;10706;49.036;12.112;2023-04-21T07:39:11;97380.63;;;12.15;71.14
21096;BME280;10706;49.036;12.112;2023-04-21T07:41:37;97378.31;;;12.24;71.71
21096;BME280;10706;49.036;12.112;2023-04-21T07:44:03;97374.97;;;12.39;69.42
21096;BME280;10706;49.036;12.112;2023-04-21T07:46:29;97374.72;;;12.45;69.43
21096;BME280;10706;49.036;12.112;2023-04-21T07:48:57;97372.31;;;12.44;69.02
21096;BME280;10706;49.036;12.112;2023-04-21T07:51:24;97382.16;;;12.71;68.25
21096;BME280;10706;49.036;12.112;2023-04-21T07:53:50;97368.03;;;12.86;67.93
21096;BME280;10706;49.036;12.112;2023-04-21T07:56:16;97378.25;;;12.89;66.93
21096;BME280;10706;49.036;12.112;2023-04-21T07:58:42;97376.50;;;13.15;66.34
21096;BME280;10706;49.036;12.112;2023-04-21T08:01:08;97374.03;;;13.03;65.83
21096;BME280;10706;49.036;12.112;2023-04-21T08:03:33;97381.91;;;13.20;63.78
21096;BME280;10706;49.036;12.112;2023-04-21T08:06:00;97380.91;;;13.31;62.67
21096;BME280;10706;49.036;12.112;2023-04-21T08:08:25;97379.34;;;13.46;63.54
21096;BME280;10706;49.036;12.112;2023-04-21T08:10:52;97382.34;;;13.54;63.14
21096;BME280;10706;49.036;12.112;2023-04-21T08:13:18;97391.44;;;13.48;61.65
21096;BME280;10706;49.036;12.112;2023-04-21T08:15:45;97386.06;;;13.43;61.48
21096;BME280;10706;49.036;12.112;2023-04-21T08:18:11;97383.91;;;13.45;63.29
21096;BME280;10706;49.036;12.112;2023-04-21T08:20:36;97385.53;;;13.46;62.27
21096;BME280;10706;49.036;12.112;2023-04-21T08:23:02;97383.44;;;13.64;61.17
21096;BME280;10706;49.036;12.112;2023-04-21T08:25:28;97390.38;;;13.54;63.08
21096;BME280;10706;49.036;12.112;2023-04-21T08:27:54;97386.09;;;13.53;61.76
21096;BME280;10706;49.036;12.112;2023-04-21T08:30:19;97396.56;;;13.50;61.65
21096;BME280;10706;49.036;12.112;2023-04-21T08:32:45;97394.81;;;13.28;61.77
21096;BME280;10706;49.036;12.112;2023-04-21T08:35:11;97399.88;;;13.25;62.22
21096;BME280;10706;49.036;12.112;2023-04-21T08:37:37;97395.44;;;13.46;61.79
21096;BME280;10706;49.036;12.112;2023-04-21T08:40:04;97398.34;;;13.34;61.33
21096;BME280;10706;49.036;12.112;2023-04-21T08:42:32;97394.50;;;13.19;60.90
21096;BME280;10706;49.036;12.112;2023-04-21T08:44:58;97394.06;;;13.33;62.60
21096;BME280;10706;49.036;12.112;2023-04-21T08:47:24;97390.34;;;13.49;62.26
21096;BME280;10706;49.036;12.112;2023-04-21T08:49:50;97389.84;;;13.52;60.29
21096;BME280;10706;49.036;12.112;2023-04-21T08:52:17;97390.38;;;13.44;61.84
21096;BME280;10706;49.036;12.112;2023-04-21T08:54:43;97395.44;;;13.40;62.81
21096;BME280;10706;49.036;12.112;2023-04-21T08:57:09;97389.88;;;13.57;61.94
21096;BME280;10706;49.036;12.112;2023-04-21T08:59:34;97393.13;;;13.70;62.22
21096;BME280;10706;49.036;12.112;2023-04-21T09:02:18;97390.50;;;13.90;62.66
21096;BME280;10706;49.036;12.112;2023-04-21T09:04:47;97385.66;;;13.92;60.66
21096;BME280;10706;49.036;12.112;2023-04-21T09:07:31;97388.91;;;14.15;62.10
21096;BME280;10706;49.036;12.112;2023-04-21T09:09:57;97386.00;;;14.47;59.58
21096;BME280;10706;49.036;12.112;2023-04-21T09:12:24;97386.81;;;14.63;61.17
21096;BME280;10706;49.036;12.112;2023-04-21T09:14:51;97388.41;;;15.00;60.48
21096;BME280;10706;49.036;12.112;2023-04-21T09:17:19;97399.94;;;15.11;57.30
21096;BME280;10706;49.036;12.112;2023-04-21T09:19:45;97396.44;;;15.05;58.13
21096;BME280;10706;49.036;12.112;2023-04-21T09:22:17;97392.13;;;15.04;58.96
21096;BME280;10706;49.036;12.112;2023-04-21T09:24:47;97394.78;;;15.30;57.65
21096;BME280;10706;49.036;12.112;2023-04-21T09:27:15;97388.72;;;15.59;55.62
21096;BME280;10706;49.036;12.112;2023-04-21T09:29:46;97381.28;;;15.40;54.76
21096;BME280;10706;49.036;12.112;2023-04-21T09:32:19;97379.19;;;15.22;54.91
21096;BME280;10706;49.036;12.112;2023-04-21T09:34:45;97385.63;;;15.26;58.85
21096;BME280;10706;49.036;12.112;2023-04-21T09:37:13;97390.97;;;15.36;55.95
21096;BME280;10706;49.036;12.112;2023-04-21T09:39:40;97387.97;;;15.48;57.53
21096;BME280;10706;49.036;12.112;2023-04-21T09:42:10;97380.06;;;15.67;56.85
21096;BME280;10706;49.036;12.112;2023-04-21T09:44:35;97379.81;;;15.68;55.50
21096;BME280;10706;49.036;12.112;2023-04-21T09:47:03;97377.91;;;15.69;55.55
21096;BME280;10706;49.036;12.112;2023-04-21T09:49:32;97376.78;;;15.85;55.86
21096;BME280;10706;49.036;12.112;2023-04-21T09:52:01;97371.03;;;15.97;56.13
21096;BME280;10706;49.036;12.112;2023-04-21T09:54:31;97368.31;;;16.07;54.69
21096;BME280;10706;49.036;12.112;2023-04-21T09:57:02;97371.91;;;16.27;54.51
21096;BME280;10706;49.036;12.112;2023-04-21T09:59:35;97375.63;;;16.02;54.65
21096;BME280;10706;49.036;12.112;2023-04-21T10:02:05;97370.13;;;16.17;53.21
21096;BME280;10706;49.036;12.112;2023-04-21T10:04:33;97369.97;;;16.38;54.40
21096;BME280;10706;49.036;12.112;2023-04-21T10:07:00;97367.97;;;16.54;56.02
21096;BME280;10706;49.036;12.112;2023-04-21T10:09:40;97357.31;;;16.67;54.11
21096;BME280;10706;49.036;12.112;2023-04-21T10:12:08;97364.66;;;16.62;53.24
21096;BME280;10706;49.036;12.112;2023-04-21T10:14:34;97360.69;;;16.83;54.84
21096;BME280;10706;49.036;12.112;2023-04-21T10:17:06;97359.72;;;16.98;51.92
21096;BME280;10706;49.036;12.112;2023-04-21T10:19:35;97354.56;;;17.02;53.12
21096;BME280;10706;49.036;12.112;2023-04-21T10:22:08;97353.94;;;16.86;51.25
21096;BME280;10706;49.036;12.112;2023-04-21T10:24:43;97348.47;;;16.91;53.70
21096;BME280;10706;49.036;12.112;2023-04-21T10:27:38;97349.34;;;17.10;51.00
21096;BME280;10706;49.036;12.112;2023-04-21T10:30:22;97338.78;;;17.14;50.83
21096;BME280;10706;49.036;12.112;2023-04-21T10:33:03;97344.00;;;17.05;52.26
21096;BME280;10706;49.036;12.112;2023-04-21T10:36:00;97345.25;;;17.37;51.98
21096;BME280;10706;49.036;12.112;2023-04-21T10:38:43;97337.38;;;17.41;51.38
21096;BME280;10706;49.036;12.112;2023-04-21T10:41:32;97342.88;;;17.55;51.42
21096;BME280;10706;49.036;12.112;2023-04-21T10:44:12;97342.81;;;17.60;50.53
21096;BME280;10706;49.036;12.112;2023-04-21T10:46:46;97332.63;;;17.76;47.98
21096;BME280;10706;49.036;12.112;2023-04-21T10:49:28;97331.41;;;17.87;47.28
21096;BME280;10706;49.036;12.112;2023-04-21T10:54:26;97339.91;;;17.75;46.80
21096;BME280;10706;49.036;12.112;2023-04-21T10:56:54;97330.84;;;17.66;45.02
21096;BME280;10706;49.036;12.112;2023-04-21T10:59:21;97329.97;;;17.71;46.03
21096;BME280;10706;49.036;12.112;2023-04-21T11:01:46;97328.31;;;17.94;46.14
21096;BME280;10706;49.036;12.112;2023-04-21T11:04:16;97318.91;;;18.10;45.79
21096;BME280;10706;49.036;12.112;2023-04-21T11:09:39;97327.69;;;18.02;47.65
21096;BME280;10706;49.036;12.112;2023-04-21T11:12:12;97326.50;;;18.08;46.27
21096;BME280;10706;49.036;12.112;2023-04-21T11:14:40;97329.69;;;18.10;45.82
21096;BME280;10706;49.036;12.112;2023-04-21T11:17:16;97326.22;;;18.10;46.56
21096;BME280;10706;49.036;12.112;2023-04-21T11:19:53;97319.66;;;17.97;45.76
21096;BME280;10706;49.036;12.112;2023-04-21T11:22:24;97317.00;;;17.92;46.68
21096;BME280;10706;49.036;12.112;2023-04-21T11:24:54;97326.06;;;18.01;46.08
21096;BME280;10706;49.036;12.112;2023-04-21T11:27:21;97323.78;;;18.08;46.74
21096;BME280;10706;49.036;12.112;2023-04-21T11:29:48;97327.75;;;18.30;45.67
21096;BME280;10706;49.036;12.112;2023-04-21T11:32:15;97319.72;;;18.43;46.46
21096;BME280;10706;49.036;12.112;2023-04-21T11:34:41;97322.63;;;18.47;46.41
21096;BME280;10706;49.036;12.112;2023-04-21T11:37:28;97312.31;;;18.49;45.35
21096;BME280;10706;49.036;12.112;2023-04-21T11:39:59;97312.53;;;18.53;45.01
21096;BME280;10706;49.036;12.112;2023-04-21T11:42:25;97311.47;;;18.68;43.84
21096;BME280;10706;49.036;12.112;2023-04-21T11:44:54;97311.97;;;18.70;43.86
21096;BME280;10706;49.036;12.112;2023-04-21T11:47:24;97309.34;;;18.64;44.35
21096;BME280;10706;49.036;12.112;2023-04-21T11:49:59;97313.91;;;18.97;45.34
21096;BME280;10706;49.036;12.112;2023-04-21T11:52:28;97310.09;;;19.12;43.25
21096;BME280;10706;49.036;12.112;2023-04-21T11:55:02;97309.78;;;18.99;43.51
21096;BME280;10706;49.036;12.112;2023-04-21T11:57:30;97311.31;;;19.06;43.12
21096;BME280;10706;49.036;12.112;2023-04-21T12:00:06;97292.41;;;19.56;41.86
21096;BME280;10706;49.036;12.112;2023-04-21T12:02:33;97300.97;;;20.53;41.30
21096;BME280;10706;49.036;12.112;2023-04-21T12:07:36;97286.19;;;21.57;36.90
21096;BME280;10706;49.036;12.112;2023-04-21T12:10:12;97283.75;;;22.43;35.65
21096;BME280;10706;49.036;12.112;2023-04-21T12:12:39;97281.38;;;23.27;35.51
21096;BME280;10706;49.036;12.112;2023-04-21T12:15:08;97282.19;;;23.27;33.29
21096;BME280;10706;49.036;12.112;2023-04-21T12:17:45;97281.47;;;23.01;34.13
21096;BME280;10706;49.036;12.112;2023-04-21T12:20:15;97278.66;;;23.48;36.09
21096;BME280;10706;49.036;12.112;2023-04-21T12:22:41;97268.59;;;23.91;34.43
21096;BME280;10706;49.036;12.112;2023-04-21T12:25:07;97264.50;;;23.76;35.34
21096;BME280;10706;49.036;12.112;2023-04-21T12:27:33;97277.84;;;23.26;38.18
21096;BME280;10706;49.036;12.112;2023-04-21T12:29:59;97270.22;;;22.73;37.11
21096;BME280;10706;49.036;12.112;2023-04-21T12:32:25;97269.06;;;23.21;38.27
21096;BME280;10706;49.036;12.112;2023-04-21T12:34:51;97263.94;;;23.91;35.63
21096;BME280;10706;49.036;12.112;2023-04-21T12:37:17;97263.91;;;23.49;35.95
21096;BME280;10706;49.036;12.112;2023-04-21T12:39:43;97250.09;;;24.30;34.22
21096;BME280;10706;49.036;12.112;2023-04-21T12:42:09;97249.38;;;25.65;31.58
21096;BME280;10706;49.036;12.112;2023-04-21T12:44:36;97246.03;;;26.72;29.91
21096;BME280;10706;49.036;12.112;2023-04-21T12:47:02;97241.50;;;27.11;28.58
21096;BME280;10706;49.036;12.112;2023-04-21T12:49:27;97247.38;;;26.62;28.63
21096;BME280;10706;49.036;12.112;2023-04-21T12:51:53;97244.16;;;25.47;30.79
21096;BME280;10706;49.036;12.112;2023-04-21T12:54:19;97241.19;;;26.37;30.26
21096;BME280;10706;49.036;12.112;2023-04-21T12:56:45;97235.88;;;26.72;29.07
21096;BME280;10706;49.036;12.112;2023-04-21T12:59:11;97231.53;;;25.42;31.08
21096;BME280;10706;49.036;12.112;2023-04-21T13:01:38;97234.38;;;25.21;31.94
21096;BME280;10706;49.036;12.112;2023-04-21T13:04:06;97237.72;;;26.08;29.52